Time;durP1;ratioP1;P1;durP2;ratioP2;P2;SDS_P1;SDS_P2;PMS_P1;PMS_P2;Temp;Humidity;BMP_temperature;BMP_pressure;BME280_temperature;BME280_humidity;BME280_pressure;Samples;Min_cycle;Max_cycle;Signal;HPM_P1;HPM_P2
2022/07/26 00:01:30;;;;;;;1.80;1.60;;;25.40;53.70;;;;;;5051780;28;20533;-64
2022/07/26 00:03:55;;;;;;;2.35;1.52;;;25.30;52.90;;;;;;5051004;28;20037;-65
2022/07/26 00:06:21;;;;;;;1.95;1.67;;;25.30;53.10;;;;;;5050163;28;20094;-65
2022/07/26 00:08:47;;;;;;;1.83;1.42;;;25.20;53.50;;;;;;5050291;28;20064;-64
2022/07/26 00:11:13;;;;;;;4.07;1.52;;;25.20;53.50;;;;;;5050591;28;20123;-65
2022/07/26 00:13:39;;;;;;;2.15;1.65;;;25.10;53.80;;;;;;5051460;28;20044;-64
2022/07/26 00:16:05;;;;;;;2.67;1.73;;;25.10;53.80;;;;;;5050879;28;20032;-64
2022/07/26 00:18:31;;;;;;;2.22;1.73;;;25.10;54.00;;;;;;5051186;28;20035;-64
2022/07/26 00:20:57;;;;;;;2.13;1.40;;;25.10;54.20;;;;;;5051979;28;20037;-64
2022/07/26 00:23:23;;;;;;;4.05;1.67;;;25.00;54.20;;;;;;5050294;28;20094;-65
2022/07/26 00:25:48;;;;;;;3.22;1.70;;;25.00;54.00;;;;;;5050126;28;20128;-67
2022/07/26 00:28:14;;;;;;;3.17;1.80;;;25.00;54.10;;;;;;5050675;28;20133;-63
2022/07/26 00:30:40;;;;;;;1.75;1.65;;;25.00;53.50;;;;;;5049446;28;22382;-64
2022/07/26 00:33:05;;;;;;;5.57;2.03;;;24.90;53.10;;;;;;5050454;28;20458;-65
2022/07/26 00:35:31;;;;;;;4.80;2.05;;;24.90;53.10;;;;;;5051434;28;20043;-66
2022/07/26 00:37:57;;;;;;;1.90;1.75;;;24.90;53.10;;;;;;5051627;28;20035;-65
2022/07/26 00:40:23;;;;;;;2.38;1.60;;;24.80;53.30;;;;;;5051574;28;20033;-65
2022/07/26 00:42:49;;;;;;;2.22;1.70;;;24.70;53.50;;;;;;5049948;28;20064;-64
2022/07/26 00:45:16;;;;;;;1.60;1.50;;;24.70;53.70;;;;;;5052673;28;20208;-64
2022/07/26 00:47:42;;;;;;;4.47;1.70;;;24.70;54.00;;;;;;5050657;28;20041;-64
2022/07/26 00:50:11;;;;;;;5.43;2.10;;;24.70;54.00;;;;;;5052120;28;20058;-65
2022/07/26 00:52:37;;;;;;;2.85;1.75;;;24.60;53.60;;;;;;5049206;28;20028;-64
2022/07/26 00:55:05;;;;;;;2.25;1.45;;;24.60;53.50;;;;;;5053821;28;20044;-64
2022/07/26 00:57:31;;;;;;;2.55;1.85;;;24.50;54.20;;;;;;5053692;28;20025;-65
2022/07/26 00:59:59;;;;;;;2.75;1.63;;;24.50;54.20;;;;;;5050753;28;20400;-64
2022/07/26 01:02:25;;;;;;;2.78;2.03;;;24.50;55.00;;;;;;5058106;28;20082;-66
2022/07/26 01:04:51;;;;;;;3.15;1.80;;;24.40;55.00;;;;;;5049869;28;20033;-64
2022/07/26 01:07:17;;;;;;;3.05;1.80;;;24.40;55.20;;;;;;5055859;28;20037;-64
2022/07/26 01:09:43;;;;;;;2.60;1.80;;;24.50;55.10;;;;;;5051652;28;20051;-64
2022/07/26 01:12:09;;;;;;;4.70;1.83;;;24.40;55.10;;;;;;5053401;28;20041;-64
2022/07/26 01:14:35;;;;;;;3.17;1.70;;;24.40;55.00;;;;;;5052860;28;20455;-65
2022/07/26 01:17:01;;;;;;;2.35;1.63;;;24.40;54.80;;;;;;5050487;28;20086;-65
2022/07/26 01:19:27;;;;;;;3.00;1.85;;;24.40;55.00;;;;;;5056411;28;20037;-64
2022/07/26 01:21:52;;;;;;;3.90;1.65;;;24.40;55.50;;;;;;5054952;28;20044;-63
2022/07/26 01:24:18;;;;;;;3.40;1.60;;;24.40;56.00;;;;;;5054484;28;20048;-64
2022/07/26 01:26:44;;;;;;;4.57;1.70;;;24.40;55.70;;;;;;5055867;28;20041;-65
2022/07/26 01:29:10;;;;;;;2.80;1.60;;;24.40;55.30;;;;;;5053697;28;20047;-64
2022/07/26 01:31:36;;;;;;;2.15;1.80;;;24.40;54.10;;;;;;5053245;28;20067;-64
2022/07/26 01:34:01;;;;;;;1.80;1.70;;;24.40;53.80;;;;;;5055663;28;20060;-64
2022/07/26 01:36:27;;;;;;;4.43;2.00;;;24.40;54.20;;;;;;5056193;28;20055;-66
2022/07/26 01:38:53;;;;;;;2.08;1.85;;;24.30;54.00;;;;;;5054675;28;20036;-62
2022/07/26 01:41:19;;;;;;;9.88;2.70;;;24.30;54.60;;;;;;5054101;28;20033;-63
2022/07/26 01:43:44;;;;;;;2.90;1.70;;;24.30;54.60;;;;;;5053160;28;20055;-63
2022/07/26 01:46:12;;;;;;;2.80;1.40;;;24.30;54.00;;;;;;5053771;28;20632;-64
2022/07/26 01:48:38;;;;;;;4.00;1.70;;;24.20;54.20;;;;;;5054921;28;20420;-65
2022/07/26 01:51:03;;;;;;;2.30;1.60;;;24.20;54.00;;;;;;5054545;28;20025;-65
2022/07/26 01:53:29;;;;;;;3.72;1.67;;;24.20;54.40;;;;;;5052974;28;20509;-64
2022/07/26 01:55:55;;;;;;;2.25;1.40;;;24.20;54.80;;;;;;5054236;28;20400;-64
2022/07/26 01:58:20;;;;;;;1.48;1.38;;;24.10;54.90;;;;;;5052685;28;20044;-66
2022/07/26 02:00:47;;;;;;;1.48;1.38;;;24.10;54.80;;;;;;5054821;28;20032;-64
2022/07/26 02:03:13;;;;;;;2.08;1.60;;;24.10;55.10;;;;;;5054840;28;20039;-65
2022/07/26 02:05:38;;;;;;;1.60;1.50;;;24.10;55.20;;;;;;5053303;28;20036;-64
2022/07/26 02:08:04;;;;;;;2.50;1.40;;;24.10;55.20;;;;;;5058268;28;20052;-65
2022/07/26 02:13:14;;;;;;;1.67;1.58;;;24.20;55.60;;;;;;5058911;28;20059;-63
2022/07/26 02:15:40;;;;;;;3.92;1.42;;;24.20;55.60;;;;;;5057999;28;20056;-64
2022/07/26 02:18:06;;;;;;;2.35;1.73;;;24.20;55.70;;;;;;5057157;28;20442;-64
2022/07/26 02:20:32;;;;;;;2.38;1.65;;;24.20;56.30;;;;;;5056526;28;20043;-63
2022/07/26 02:23:02;;;;;;;2.05;1.70;;;24.20;56.50;;;;;;5057235;28;20036;-65
2022/07/26 02:25:27;;;;;;;4.80;1.70;;;24.20;56.70;;;;;;5057339;28;20068;-65
2022/07/26 02:27:53;;;;;;;3.15;1.58;;;24.20;56.30;;;;;;5058165;28;20499;-64
2022/07/26 02:30:19;;;;;;;3.63;1.38;;;24.20;56.50;;;;;;5056804;28;20455;-64
2022/07/26 02:32:45;;;;;;;2.45;1.35;;;24.20;56.20;;;;;;5056829;28;20063;-64
2022/07/26 02:35:10;;;;;;;1.85;1.40;;;24.10;56.20;;;;;;5057431;28;20037;-66
2022/07/26 02:37:36;;;;;;;3.97;1.70;;;24.10;56.40;;;;;;5056884;28;20547;-66
2022/07/26 02:40:03;;;;;;;4.55;1.60;;;24.10;56.40;;;;;;5056289;28;20412;-65
2022/07/26 02:42:29;;;;;;;4.15;1.52;;;24.10;56.80;;;;;;5055497;28;20033;-63
2022/07/26 02:44:54;;;;;;;3.25;1.40;;;24.10;56.40;;;;;;5058515;28;20491;-65
2022/07/26 02:47:20;;;;;;;2.83;1.30;;;24.10;56.00;;;;;;5056422;28;20079;-65
2022/07/26 02:49:45;;;;;;;2.55;1.30;;;24.10;55.70;;;;;;5057870;28;20062;-64
2022/07/26 02:52:11;;;;;;;3.05;1.33;;;24.10;55.50;;;;;;5055798;28;20287;-65
2022/07/26 02:54:37;;;;;;;3.70;1.40;;;24.10;55.30;;;;;;5056042;28;20033;-65
2022/07/26 02:57:03;;;;;;;3.10;1.35;;;24.10;55.60;;;;;;5057809;28;20033;-65
2022/07/26 02:59:28;;;;;;;1.60;1.30;;;24.10;55.50;;;;;;5057038;28;20079;-64
2022/07/26 03:01:54;;;;;;;3.30;1.30;;;24.10;55.40;;;;;;5057875;28;20143;-65
2022/07/26 03:04:20;;;;;;;3.17;1.50;;;24.10;55.60;;;;;;5055025;28;20512;-64
2022/07/26 03:06:45;;;;;;;2.17;1.50;;;24.10;55.70;;;;;;5055741;28;20029;-64
2022/07/26 03:09:11;;;;;;;2.50;1.30;;;24.10;55.80;;;;;;5056423;28;20056;-65
2022/07/26 03:11:37;;;;;;;1.13;1.02;;;24.10;55.70;;;;;;5051350;28;20040;-65
2022/07/26 03:14:02;;;;;;;5.47;1.40;;;24.10;55.60;;;;;;5053905;28;20040;-65
2022/07/26 03:16:28;;;;;;;3.72;1.38;;;24.10;55.80;;;;;;5056408;28;20101;-64
2022/07/26 03:18:54;;;;;;;2.50;1.30;;;24.10;55.70;;;;;;5056282;28;20431;-66
2022/07/26 03:21:19;;;;;;;3.45;1.38;;;24.10;55.20;;;;;;5056427;28;20037;-64
2022/07/26 03:23:45;;;;;;;1.50;1.10;;;24.10;55.00;;;;;;5056349;28;20032;-64
2022/07/26 03:26:11;;;;;;;1.73;1.27;;;24.10;55.10;;;;;;5054833;28;20531;-64
2022/07/26 03:28:38;;;;;;;2.08;1.10;;;24.00;55.20;;;;;;5055696;28;20044;-63
2022/07/26 03:31:04;;;;;;;3.53;1.20;;;24.00;55.40;;;;;;5057943;28;20033;-63
2022/07/26 03:33:29;;;;;;;2.28;0.85;;;24.00;56.10;;;;;;5056451;28;20056;-63
2022/07/26 03:35:55;;;;;;;1.92;1.27;;;23.90;56.50;;;;;;5056448;28;20525;-64
2022/07/26 03:38:21;;;;;;;2.58;1.38;;;23.80;57.40;;;;;;5057449;28;20064;-64
2022/07/26 03:40:47;;;;;;;2.20;1.20;;;23.60;57.60;;;;;;5056274;28;20037;-62
2022/07/26 03:43:12;;;;;;;1.70;1.10;;;23.60;58.10;;;;;;5055192;28;20412;-62
2022/07/26 03:45:38;;;;;;;1.05;0.95;;;23.50;58.60;;;;;;5055171;28;20086;-62
2022/07/26 03:48:04;;;;;;;1.40;1.10;;;23.40;59.10;;;;;;5055588;28;20041;-63
2022/07/26 03:50:29;;;;;;;1.60;1.08;;;23.30;59.20;;;;;;5055132;28;20029;-62
2022/07/26 03:52:55;;;;;;;1.38;1.27;;;23.30;59.70;;;;;;5057390;28;20029;-62
2022/07/26 03:58:05;;;;;;;3.25;1.48;;;23.30;59.80;;;;;;5057310;28;20035;-63
2022/07/26 04:00:30;;;;;;;3.70;1.60;;;23.20;59.60;;;;;;5055607;28;20025;-63
2022/07/26 04:02:56;;;;;;;2.45;1.33;;;23.20;60.00;;;;;;5056483;28;20033;-63
2022/07/26 04:05:22;;;;;;;1.20;1.10;;;23.20;60.50;;;;;;5054266;28;20040;-65
2022/07/26 04:07:47;;;;;;;3.03;1.52;;;23.10;60.80;;;;;;5056476;28;20029;-64
2022/07/26 04:10:14;;;;;;;2.50;1.30;;;23.10;61.40;;;;;;5054771;28;20032;-63
2022/07/26 04:12:40;;;;;;;3.13;1.20;;;23.10;61.60;;;;;;5055733;28;20036;-63
2022/07/26 04:15:06;;;;;;;1.98;1.30;;;23.00;61.90;;;;;;5053870;28;20134;-62
2022/07/26 04:17:41;;;;;;;3.38;1.20;;;23.00;62.00;;;;;;5054975;28;20051;-61
2022/07/26 04:20:09;;;;;;;3.20;1.50;;;22.90;63.40;;;;;;5053280;28;20045;-62
2022/07/26 04:22:35;;;;;;;1.65;1.25;;;22.90;62.40;;;;;;5052605;28;20594;-61
2022/07/26 04:25:01;;;;;;;1.83;1.20;;;22.90;62.90;;;;;;5051478;28;20044;-62
2022/07/26 04:27:27;;;;;;;2.03;1.25;;;22.80;63.20;;;;;;5052968;28;20064;-62
2022/07/26 04:29:53;;;;;;;2.70;1.20;;;22.70;63.20;;;;;;5053277;28;20123;-61
2022/07/26 04:32:18;;;;;;;1.10;1.00;;;22.70;63.50;;;;;;5045859;28;20515;-63
2022/07/26 04:34:44;;;;;;;2.55;1.17;;;22.70;63.90;;;;;;5043848;28;20047;-62
2022/07/26 04:37:10;;;;;;;3.20;1.27;;;22.70;63.90;;;;;;5046339;28;20493;-62
2022/07/26 04:39:36;;;;;;;1.80;1.02;;;22.70;64.10;;;;;;5047706;28;20066;-63
2022/07/26 04:42:01;;;;;;;1.92;0.98;;;22.60;65.30;;;;;;5050149;28;20097;-62
2022/07/26 04:44:27;;;;;;;1.73;1.10;;;22.60;64.40;;;;;;5054231;28;20478;-62
2022/07/26 04:46:52;;;;;;;1.17;1.02;;;22.60;64.60;;;;;;5053081;28;20575;-61
2022/07/26 04:49:18;;;;;;;2.33;1.23;;;22.60;64.60;;;;;;5054061;28;20095;-60
2022/07/26 04:51:43;;;;;;;2.05;1.33;;;22.50;65.30;;;;;;5053771;28;20424;-63
2022/07/26 04:54:09;;;;;;;1.55;1.38;;;22.60;65.70;;;;;;5054503;28;20442;-63
2022/07/26 04:56:35;;;;;;;3.22;1.45;;;22.50;66.00;;;;;;5056618;28;20029;-61
2022/07/26 04:59:00;;;;;;;1.27;1.08;;;22.50;66.00;;;;;;5060071;28;20036;-64
2022/07/26 05:01:26;;;;;;;1.60;1.27;;;22.50;66.40;;;;;;5057797;28;20033;-63
2022/07/26 05:03:51;;;;;;;2.60;1.30;;;22.50;66.30;;;;;;5057427;28;20401;-64
2022/07/26 05:06:17;;;;;;;1.58;1.20;;;22.50;66.40;;;;;;5057233;28;20028;-63
2022/07/26 05:08:42;;;;;;;1.52;1.00;;;22.50;66.60;;;;;;5055918;28;20041;-61
2022/07/26 05:11:08;;;;;;;4.10;1.08;;;22.50;66.70;;;;;;5058205;28;20033;-60
2022/07/26 05:13:34;;;;;;;1.90;1.20;;;22.50;66.40;;;;;;5059490;28;20051;-63
2022/07/26 05:16:00;;;;;;;2.25;1.27;;;22.50;66.40;;;;;;5056694;28;20036;-63
2022/07/26 05:18:26;;;;;;;5.10;1.35;;;22.50;66.20;;;;;;5056543;28;20033;-63
2022/07/26 05:20:52;;;;;;;3.38;1.30;;;22.50;66.20;;;;;;5057977;28;20754;-64
2022/07/26 05:23:19;;;;;;;2.38;1.17;;;22.50;66.60;;;;;;5057213;28;20040;-64
2022/07/26 05:25:44;;;;;;;2.13;1.20;;;22.50;67.00;;;;;;5058849;28;20041;-62
2022/07/26 05:28:10;;;;;;;2.00;1.15;;;22.50;67.60;;;;;;5055592;28;20044;-59
2022/07/26 05:30:36;;;;;;;3.00;1.23;;;22.50;66.60;;;;;;5057242;28;20032;-63
2022/07/26 05:33:02;;;;;;;1.65;1.38;;;22.50;66.70;;;;;;5057139;28;20093;-62
2022/07/26 05:35:27;;;;;;;1.40;1.23;;;22.40;66.80;;;;;;5055169;28;20279;-63
2022/07/26 05:37:53;;;;;;;2.95;1.10;;;22.40;66.70;;;;;;5058093;28;20036;-63
2022/07/26 05:40:19;;;;;;;2.05;1.30;;;22.40;67.60;;;;;;5055781;28;20412;-62
2022/07/26 05:42:44;;;;;;;1.67;1.58;;;22.40;66.90;;;;;;5056970;28;20064;-63
2022/07/26 05:45:10;;;;;;;3.60;1.45;;;22.40;68.10;;;;;;5057043;28;20037;-64
2022/07/26 05:47:36;;;;;;;1.42;1.33;;;22.40;67.60;;;;;;5056322;28;20029;-65
2022/07/26 05:50:03;;;;;;;2.65;1.30;;;22.40;67.90;;;;;;5055025;28;20041;-62
2022/07/26 05:52:28;;;;;;;2.88;1.23;;;22.40;68.10;;;;;;5055505;28;20040;-62
2022/07/26 05:54:54;;;;;;;1.30;1.20;;;22.40;68.50;;;;;;5056353;28;20101;-62
2022/07/26 05:57:19;;;;;;;1.80;1.25;;;22.40;68.30;;;;;;5053650;28;20040;-63
2022/07/26 05:59:45;;;;;;;2.38;1.40;;;22.30;68.50;;;;;;5052452;28;20071;-63
2022/07/26 06:02:11;;;;;;;1.45;1.20;;;22.30;68.30;;;;;;5054649;28;20043;-63
2022/07/26 06:04:36;;;;;;;2.53;1.30;;;22.30;68.60;;;;;;5054764;28;20068;-63
2022/07/26 06:07:02;;;;;;;2.15;1.35;;;22.30;69.00;;;;;;5052800;28;20033;-58
2022/07/26 06:09:28;;;;;;;1.42;1.27;;;22.30;68.80;;;;;;5058430;28;20041;-62
2022/07/26 06:11:53;;;;;;;2.45;1.40;;;22.30;68.70;;;;;;5055110;28;20047;-63
2022/07/26 06:14:19;;;;;;;2.60;1.40;;;22.30;68.80;;;;;;5056665;28;20037;-63
2022/07/26 06:16:46;;;;;;;2.45;1.38;;;22.30;68.70;;;;;;5056321;28;20045;-63
2022/07/26 06:19:12;;;;;;;2.85;1.30;;;22.30;68.90;;;;;;5056207;28;20381;-63
2022/07/26 06:21:37;;;;;;;2.88;1.40;;;22.30;69.00;;;;;;5055975;28;20028;-61
2022/07/26 06:24:03;;;;;;;2.10;1.38;;;22.30;69.20;;;;;;5056186;28;20739;-65
2022/07/26 06:26:29;;;;;;;4.28;1.25;;;22.30;69.00;;;;;;5057957;28;20041;-63
2022/07/26 06:28:54;;;;;;;1.58;1.00;;;22.30;69.00;;;;;;5057170;28;20330;-61
2022/07/26 06:31:20;;;;;;;1.85;1.15;;;22.30;68.80;;;;;;5056469;28;20482;-62
2022/07/26 06:33:46;;;;;;;3.20;1.40;;;22.30;68.80;;;;;;5056474;28;20064;-62
2022/07/26 06:36:12;;;;;;;3.40;1.02;;;22.40;69.00;;;;;;5057488;28;20116;-62
2022/07/26 06:38:37;;;;;;;3.03;1.25;;;22.40;69.00;;;;;;5057199;28;20120;-63
2022/07/26 06:41:03;;;;;;;1.77;1.27;;;22.40;69.00;;;;;;5055958;28;20040;-63
2022/07/26 06:43:29;;;;;;;1.88;1.13;;;22.40;69.10;;;;;;5054272;28;20028;-64
2022/07/26 06:45:54;;;;;;;1.40;1.00;;;22.40;69.00;;;;;;5056439;28;20406;-63
2022/07/26 06:48:20;;;;;;;4.38;1.27;;;22.40;69.10;;;;;;5057137;28;20051;-63
2022/07/26 06:50:45;;;;;;;1.05;0.98;;;22.40;69.20;;;;;;5055378;28;20485;-63
2022/07/26 06:53:11;;;;;;;2.58;1.00;;;22.50;69.60;;;;;;5054474;28;20563;-64
2022/07/26 06:55:37;;;;;;;1.08;0.90;;;22.50;69.50;;;;;;5054010;28;20426;-64
2022/07/26 06:58:02;;;;;;;1.17;0.90;;;22.60;68.80;;;;;;5050625;28;20045;-62
2022/07/26 07:00:28;;;;;;;3.13;1.27;;;22.60;68.60;;;;;;5055417;28;20043;-62
2022/07/26 07:02:53;;;;;;;1.13;0.90;;;22.70;69.10;;;;;;5057106;28;20132;-62
2022/07/26 07:05:19;;;;;;;1.23;1.13;;;22.70;69.00;;;;;;5055198;28;20128;-67
2022/07/26 07:07:45;;;;;;;1.08;0.98;;;22.70;68.50;;;;;;5056640;28;20035;-60
2022/07/26 07:10:10;;;;;;;1.95;1.27;;;22.70;68.40;;;;;;5051598;28;20460;-65
2022/07/26 07:12:36;;;;;;;3.90;1.15;;;22.80;68.50;;;;;;5055474;28;20036;-66
2022/07/26 07:15:02;;;;;;;1.83;1.15;;;22.80;68.80;;;;;;5056160;28;20416;-62
2022/07/26 07:17:28;;;;;;;1.73;0.85;;;22.90;69.20;;;;;;5054441;28;20046;-63
2022/07/26 07:19:53;;;;;;;1.67;1.10;;;22.90;69.30;;;;;;5054405;28;20032;-62
2022/07/26 07:22:19;;;;;;;1.20;1.10;;;23.00;69.30;;;;;;5055239;28;20033;-62
2022/07/26 07:24:44;;;;;;;1.20;1.10;;;23.10;69.20;;;;;;5056520;28;20427;-64
2022/07/26 07:27:10;;;;;;;4.00;1.23;;;23.20;69.00;;;;;;5053821;28;20670;-64
2022/07/26 07:29:36;;;;;;;2.88;1.55;;;23.20;67.70;;;;;;5054603;28;20492;-63
2022/07/26 07:32:02;;;;;;;2.90;1.40;;;23.30;67.40;;;;;;5056661;28;20041;-63
2022/07/26 07:34:27;;;;;;;2.45;1.30;;;23.40;67.30;;;;;;5056506;28;20045;-63
2022/07/26 07:36:53;;;;;;;2.22;1.00;;;23.40;66.80;;;;;;5055554;28;20143;-63
2022/07/26 07:39:19;;;;;;;1.55;1.10;;;23.40;66.60;;;;;;5055829;28;20074;-62
2022/07/26 07:41:45;;;;;;;3.88;1.20;;;23.50;66.70;;;;;;5053339;28;20048;-63
2022/07/26 07:44:11;;;;;;;1.60;1.02;;;23.60;66.40;;;;;;5051801;28;20033;-64
2022/07/26 07:46:37;;;;;;;1.52;1.10;;;23.60;66.40;;;;;;5053528;28;20051;-63
2022/07/26 07:49:02;;;;;;;2.58;1.30;;;23.70;66.10;;;;;;5056968;28;20044;-64
2022/07/26 07:51:28;;;;;;;1.48;0.98;;;23.70;66.00;;;;;;5053969;28;20037;-64
2022/07/26 07:53:54;;;;;;;1.45;1.23;;;23.80;65.50;;;;;;5055269;28;20424;-63
2022/07/26 07:56:20;;;;;;;3.88;1.40;;;23.90;64.80;;;;;;5053728;28;20037;-65
2022/07/26 07:58:46;;;;;;;2.80;1.23;;;23.90;64.80;;;;;;5051617;28;20447;-64
2022/07/26 08:01:11;;;;;;;1.38;1.27;;;23.90;65.00;;;;;;5053594;28;20071;-64
2022/07/26 08:03:37;;;;;;;1.92;1.30;;;24.00;64.50;;;;;;5052784;28;20033;-64
2022/07/26 08:06:05;;;;;;;1.25;1.15;;;24.10;64.60;;;;;;5056501;28;20032;-64
2022/07/26 08:08:31;;;;;;;2.03;1.25;;;24.20;64.00;;;;;;5052078;28;20038;-64
2022/07/26 08:10:57;;;;;;;1.30;1.20;;;24.30;63.10;;;;;;5053968;28;20028;-65
2022/07/26 08:13:22;;;;;;;1.20;1.00;;;24.40;63.00;;;;;;5055875;28;20037;-64
2022/07/26 08:15:49;;;;;;;1.58;1.20;;;24.40;63.10;;;;;;5055480;28;20106;-64
2022/07/26 08:18:15;;;;;;;1.70;1.20;;;24.40;62.70;;;;;;5054908;28;20024;-64
2022/07/26 08:20:41;;;;;;;3.78;1.20;;;24.50;63.00;;;;;;5053833;28;20033;-64
2022/07/26 08:23:06;;;;;;;2.17;1.25;;;24.60;62.90;;;;;;5055890;28;20089;-65
2022/07/26 08:25:32;;;;;;;3.05;1.23;;;24.70;62.00;;;;;;5054354;28;20074;-63
2022/07/26 08:27:57;;;;;;;4.00;1.10;;;24.80;61.90;;;;;;5056652;28;20480;-66
2022/07/26 08:30:23;;;;;;;2.45;1.20;;;24.80;61.70;;;;;;5054078;28;21184;-68
2022/07/26 08:32:49;;;;;;;3.38;1.10;;;24.90;61.20;;;;;;5053255;28;20436;-66
2022/07/26 08:35:14;;;;;;;2.25;1.05;;;25.00;60.50;;;;;;5052975;28;20995;-65
2022/07/26 08:37:40;;;;;;;2.58;1.20;;;25.00;59.00;;;;;;5058886;28;20043;-63
2022/07/26 08:40:06;;;;;;;4.57;0.90;;;25.00;59.30;;;;;;5057013;28;20052;-62
2022/07/26 08:42:32;;;;;;;2.72;1.10;;;25.00;58.60;;;;;;5053962;28;20044;-65
2022/07/26 08:44:59;;;;;;;1.17;1.00;;;25.00;57.90;;;;;;5050197;28;20041;-65
2022/07/26 08:47:25;;;;;;;3.38;1.10;;;24.90;58.00;;;;;;5049837;28;20044;-64
2022/07/26 08:49:50;;;;;;;1.42;1.00;;;24.90;58.10;;;;;;5054389;28;20457;-64
2022/07/26 08:52:16;;;;;;;1.98;0.98;;;24.80;57.70;;;;;;5053483;28;20040;-65
2022/07/26 08:54:47;;;;;;;2.88;1.20;;;24.80;58.30;;;;;;5053867;28;20654;-65
2022/07/26 08:57:13;;;;;;;3.00;1.30;;;24.80;57.50;;;;;;5051725;28;20396;-63
2022/07/26 08:59:39;;;;;;;2.53;1.23;;;24.70;57.80;;;;;;5055094;28;20040;-64
2022/07/26 09:02:08;;;;;;;1.65;1.10;;;24.70;57.80;;;;;;5053701;28;20041;-66
2022/07/26 09:04:38;;;;;;;1.55;1.20;;;24.70;58.20;;;;;;5054221;28;20041;-68
2022/07/26 09:07:09;;;;;;;2.22;1.02;;;24.70;58.80;;;;;;5056046;28;20036;-64
2022/07/26 09:10:02;;;;;;;1.23;1.00;;;24.80;59.00;;;;;;5055110;28;20032;-63
2022/07/26 09:12:29;;;;;;;1.23;1.13;;;24.90;58.30;;;;;;5052444;28;20041;-64
2022/07/26 09:14:56;;;;;;;2.72;1.00;;;25.00;58.60;;;;;;5055325;28;20040;-63
2022/07/26 09:17:23;;;;;;;1.35;1.00;;;25.10;57.30;;;;;;5054115;28;20036;-66
2022/07/26 09:20:08;;;;;;;1.23;1.00;;;25.20;57.30;;;;;;5051692;28;20037;-65
2022/07/26 09:22:55;;;;;;;2.03;1.15;;;25.40;56.50;;;;;;5055602;28;20040;-66
2022/07/26 09:25:23;;;;;;;2.50;1.00;;;25.50;56.40;;;;;;5055658;28;20037;-63
2022/07/26 09:27:49;;;;;;;1.23;1.13;;;25.70;56.00;;;;;;5055080;28;20123;-63
2022/07/26 09:30:14;;;;;;;2.08;1.20;;;25.80;55.20;;;;;;5052315;28;20041;-64
2022/07/26 09:32:55;;;;;;;1.40;1.08;;;25.80;53.20;;;;;;5050761;28;20040;-62
2022/07/26 09:35:21;;;;;;;3.15;1.17;;;25.90;53.20;;;;;;5053576;28;20071;-65
2022/07/26 09:37:47;;;;;;;2.35;1.00;;;26.00;53.00;;;;;;5057697;28;20061;-65
2022/07/26 09:40:15;;;;;;;1.80;1.10;;;26.00;53.00;;;;;;5052949;28;20627;-64
2022/07/26 09:43:16;;;;;;;1.23;1.13;;;26.00;53.20;;;;;;5054742;28;20059;-65
2022/07/26 09:45:42;;;;;;;2.00;1.00;;;26.10;52.40;;;;;;5015592;28;20045;-65
2022/07/26 09:48:10;;;;;;;3.25;0.90;;;26.20;52.50;;;;;;5048849;28;20040;-63
2022/07/26 09:50:36;;;;;;;3.20;0.95;;;26.30;52.60;;;;;;5056726;28;20021;-64
2022/07/26 09:53:07;;;;;;;2.22;1.10;;;26.40;51.30;;;;;;5057034;28;20029;-64
2022/07/26 09:55:54;;;;;;;1.20;0.77;;;26.40;49.20;;;;;;5056083;28;20040;-63
2022/07/26 09:58:21;;;;;;;1.80;1.10;;;26.40;49.30;;;;;;5054690;28;20520;-65
2022/07/26 10:00:47;;;;;;;1.30;1.20;;;26.50;50.10;;;;;;5056798;28;20040;-64
2022/07/26 10:03:13;;;;;;;1.33;1.10;;;26.50;50.30;;;;;;5057181;28;20098;-64
2022/07/26 10:05:39;;;;;;;1.67;1.10;;;26.50;49.80;;;;;;5053902;28;20500;-65
2022/07/26 10:08:06;;;;;;;2.85;1.20;;;26.60;49.40;;;;;;5054322;28;20162;-66
2022/07/26 10:10:58;;;;;;;1.73;1.10;;;26.60;48.50;;;;;;5055046;28;20427;-63
2022/07/26 10:13:26;;;;;;;1.60;1.20;;;26.50;48.40;;;;;;5059287;28;20039;-67
2022/07/26 10:15:52;;;;;;;1.15;0.93;;;26.50;49.80;;;;;;5060283;28;20083;-63
2022/07/26 10:18:35;;;;;;;1.17;0.90;;;26.50;49.60;;;;;;5058911;28;20041;-64
2022/07/26 10:21:17;;;;;;;2.70;1.00;;;26.50;47.60;;;;;;5059629;28;20029;-65
2022/07/26 10:23:49;;;;;;;1.20;0.90;;;26.50;48.20;;;;;;5058326;28;20512;-63
2022/07/26 10:26:33;;;;;;;1.20;1.00;;;26.50;49.00;;;;;;5058842;28;20239;-65
2022/07/26 10:29:19;;;;;;;2.80;1.10;;;26.60;47.00;;;;;;5056444;28;20657;-64
2022/07/26 10:31:48;;;;;;;2.78;1.38;;;26.70;46.10;;;;;;5055438;28;20040;-64
2022/07/26 10:34:37;;;;;;;2.58;1.10;;;26.80;47.50;;;;;;5056061;28;20041;-66
2022/07/26 10:37:06;;;;;;;3.83;1.30;;;26.90;45.10;;;;;;5055446;28;20037;-64
2022/07/26 10:39:32;;;;;;;1.58;0.98;;;27.00;45.90;;;;;;5056934;28;21371;-65
2022/07/26 10:42:08;;;;;;;1.60;0.77;;;27.00;46.50;;;;;;5056675;28;20527;-64
2022/07/26 10:44:40;;;;;;;1.65;0.98;;;26.90;46.10;;;;;;5054034;28;20047;-65
2022/07/26 10:47:05;;;;;;;1.95;1.13;;;26.90;45.50;;;;;;5055151;28;20037;-63
2022/07/26 10:49:44;;;;;;;1.45;1.00;;;26.90;45.90;;;;;;5054604;28;20113;-64
2022/07/26 10:52:16;;;;;;;2.08;1.10;;;26.80;45.50;;;;;;5052834;28;20584;-66
2022/07/26 10:55:02;;;;;;;1.45;0.98;;;26.80;46.00;;;;;;5053450;28;20409;-66
2022/07/26 10:57:35;;;;;;;2.42;0.90;;;26.80;44.50;;;;;;5052602;28;20571;-64
2022/07/26 11:00:11;;;;;;;1.25;0.85;;;26.80;45.90;;;;;;5050808;28;20523;-64
2022/07/26 11:02:37;;;;;;;1.63;1.10;;;26.80;45.20;;;;;;5056857;28;20036;-65
2022/07/26 11:05:15;;;;;;;1.27;0.90;;;26.80;46.00;;;;;;5059243;28;20580;-65
2022/07/26 11:08:09;;;;;;;0.85;0.80;;;26.80;45.50;;;;;;5058265;28;20040;-65
2022/07/26 11:10:45;;;;;;;2.80;0.90;;;26.80;45.50;;;;;;5056146;28;20037;-65
2022/07/26 11:13:22;;;;;;;2.72;1.05;;;26.90;46.40;;;;;;5055923;28;20115;-65
2022/07/26 11:16:02;;;;;;;3.40;1.13;;;26.90;46.40;;;;;;5055750;28;20160;-65
2022/07/26 11:18:31;;;;;;;2.28;1.10;;;26.90;45.80;;;;;;5054417;28;20075;-65
2022/07/26 11:21:10;;;;;;;0.85;0.85;;;27.00;46.60;;;;;;5055485;28;20031;-65
2022/07/26 11:23:38;;;;;;;1.05;0.60;;;27.00;45.60;;;;;;5054650;28;20535;-64
2022/07/26 11:26:10;;;;;;;4.40;0.93;;;27.00;45.50;;;;;;5049717;28;20037;-64
2022/07/26 11:29:02;;;;;;;1.30;0.90;;;27.00;44.90;;;;;;5056240;28;20029;-65
2022/07/26 11:31:37;;;;;;;1.98;0.90;;;27.10;45.00;;;;;;5053182;28;20535;-65
2022/07/26 11:34:04;;;;;;;1.52;0.80;;;27.10;45.80;;;;;;5057271;28;20127;-63
2022/07/26 11:36:34;;;;;;;1.70;0.93;;;27.10;46.00;;;;;;5053740;28;20029;-65
2022/07/26 11:39:02;;;;;;;1.42;0.93;;;27.20;45.50;;;;;;5057014;28;20523;-66
2022/07/26 11:41:30;;;;;;;1.50;1.13;;;27.30;46.20;;;;;;5057342;28;20045;-64
2022/07/26 11:43:56;;;;;;;2.72;0.95;;;27.30;45.90;;;;;;5055890;28;20484;-67
2022/07/26 11:46:31;;;;;;;4.45;0.88;;;27.40;45.00;;;;;;5057755;28;20142;-64
2022/07/26 11:48:57;;;;;;;1.23;0.80;;;27.50;44.90;;;;;;5054764;28;20087;-63
2022/07/26 11:51:24;;;;;;;2.28;0.90;;;27.50;44.20;;;;;;5056389;28;20586;-65
2022/07/26 11:53:58;;;;;;;8.77;0.90;;;27.50;44.60;;;;;;5056487;28;20439;-63
2022/07/26 11:56:25;;;;;;;1.20;0.73;;;27.60;43.70;;;;;;5054284;28;20053;-65
2022/07/26 11:58:52;;;;;;;1.10;0.70;;;27.50;43.50;;;;;;5055590;28;20085;-65
2022/07/26 12:01:20;;;;;;;1.00;0.60;;;27.50;43.70;;;;;;5051374;28;20610;-66
2022/07/26 12:03:49;;;;;;;1.25;0.70;;;27.50;44.00;;;;;;5053646;28;20413;-66
2022/07/26 12:06:17;;;;;;;2.08;0.73;;;27.50;43.80;;;;;;5055989;28;20095;-63
2022/07/26 12:08:49;;;;;;;2.03;0.90;;;27.50;43.30;;;;;;5052895;28;20072;-66
2022/07/26 12:11:16;;;;;;;0.95;0.60;;;27.60;42.50;;;;;;5052844;28;20597;-65
2022/07/26 12:14:00;;;;;;;1.05;0.85;;;27.60;43.40;;;;;;5050666;28;20032;-66
2022/07/26 12:16:42;;;;;;;1.02;0.70;;;27.70;43.00;;;;;;5055657;28;20032;-64
2022/07/26 12:19:30;;;;;;;1.02;0.60;;;27.70;41.70;;;;;;5052139;28;20052;-67
2022/07/26 12:22:06;;;;;;;1.77;0.60;;;27.70;42.30;;;;;;5050985;28;20028;-64
2022/07/26 12:24:57;;;;;;;1.60;0.70;;;27.70;42.60;;;;;;5051063;28;20569;-64
2022/07/26 12:27:22;;;;;;;0.70;0.60;;;27.70;41.20;;;;;;5051313;28;20112;-64
2022/07/26 12:29:54;;;;;;;1.27;0.70;;;27.70;41.60;;;;;;5051751;28;20275;-65
2022/07/26 12:32:34;;;;;;;1.08;0.70;;;27.70;41.60;;;;;;5049628;28;20461;-63
2022/07/26 12:35:09;;;;;;;1.85;0.80;;;27.80;40.80;;;;;;5053927;28;20106;-64
2022/07/26 12:37:46;;;;;;;0.55;0.55;;;27.80;41.50;;;;;;5052075;28;20033;-66
2022/07/26 12:40:16;;;;;;;0.60;0.60;;;27.90;41.20;;;;;;5050353;28;20052;-64
2022/07/26 12:42:49;;;;;;;0.60;0.60;;;28.00;41.50;;;;;;5053527;28;20119;-63
2022/07/26 12:45:17;;;;;;;1.02;0.63;;;28.00;41.50;;;;;;5048591;28;20037;-65
2022/07/26 12:47:46;;;;;;;2.40;0.80;;;28.20;40.80;;;;;;5052050;28;20045;-65
2022/07/26 12:50:13;;;;;;;2.10;0.57;;;28.20;40.40;;;;;;5053569;28;20055;-63
2022/07/26 12:52:40;;;;;;;0.85;0.65;;;28.30;39.80;;;;;;5049202;28;20352;-64
2022/07/26 12:55:09;;;;;;;2.58;0.70;;;28.30;40.30;;;;;;5051331;28;20033;-65
2022/07/26 12:57:34;;;;;;;0.60;0.60;;;28.40;38.50;;;;;;5051892;28;20453;-66